sensor_id;sensor_type;location;lat;lon;timestamp;P1;durP1;ratioP1;P2;durP2;ratioP2
39778;SDS011;25454;49.878;8.618;2022-08-02T00:03:37;5.00;;;3.60;;
39778;SDS011;25454;49.878;8.618;2022-08-02T00:08:39;4.50;;;3.67;;
39778;SDS011;25454;49.878;8.618;2022-08-02T00:13:39;3.67;;;3.37;;
39778;SDS011;25454;49.878;8.618;2022-08-02T00:18:41;3.57;;;3.27;;
39778;SDS011;25454;49.878;8.618;2022-08-02T00:23:42;4.03;;;3.63;;
39778;SDS011;25454;49.878;8.618;2022-08-02T00:28:43;4.33;;;3.40;;
39778;SDS011;25454;49.878;8.618;2022-08-02T00:33:44;4.10;;;3.70;;
39778;SDS011;25454;49.878;8.618;2022-08-02T00:38:45;8.27;;;3.97;;
39778;SDS011;25454;49.878;8.618;2022-08-02T00:43:48;3.43;;;3.23;;
39778;SDS011;25454;49.878;8.618;2022-08-02T00:48:49;4.83;;;3.20;;
39778;SDS011;25454;49.878;8.618;2022-08-02T00:53:50;3.90;;;3.60;;
39778;SDS011;25454;49.878;8.618;2022-08-02T00:58:51;7.13;;;4.17;;
39778;SDS011;25454;49.878;8.618;2022-08-02T01:03:52;3.93;;;3.50;;
39778;SDS011;25454;49.878;8.618;2022-08-02T01:08:53;3.87;;;3.53;;
39778;SDS011;25454;49.878;8.618;2022-08-02T01:13:58;3.60;;;3.30;;
39778;SDS011;25454;49.878;8.618;2022-08-02T01:19:14;4.20;;;3.80;;
39778;SDS011;25454;49.878;8.618;2022-08-02T01:24:34;3.73;;;3.43;;
39778;SDS011;25454;49.878;8.618;2022-08-02T01:29:38;4.20;;;3.80;;
39778;SDS011;25454;49.878;8.618;2022-08-02T01:34:42;4.57;;;2.93;;
39778;SDS011;25454;49.878;8.618;2022-08-02T01:40:20;3.30;;;3.00;;
39778;SDS011;25454;49.878;8.618;2022-08-02T01:45:13;3.33;;;3.03;;
39778;SDS011;25454;49.878;8.618;2022-08-02T01:50:16;4.03;;;2.73;;
39778;SDS011;25454;49.878;8.618;2022-08-02T01:55:20;2.73;;;2.53;;
39778;SDS011;25454;49.878;8.618;2022-08-02T02:00:22;7.53;;;3.23;;
39778;SDS011;25454;49.878;8.618;2022-08-02T02:05:25;3.60;;;3.17;;
39778;SDS011;25454;49.878;8.618;2022-08-02T02:10:28;6.50;;;3.37;;
39778;SDS011;25454;49.878;8.618;2022-08-02T02:15:33;5.63;;;3.43;;
39778;SDS011;25454;49.878;8.618;2022-08-02T02:20:35;3.33;;;3.00;;
39778;SDS011;25454;49.878;8.618;2022-08-02T02:25:36;4.00;;;3.27;;
39778;SDS011;25454;49.878;8.618;2022-08-02T02:30:42;3.67;;;3.30;;
39778;SDS011;25454;49.878;8.618;2022-08-02T02:35:47;4.73;;;3.27;;
39778;SDS011;25454;49.878;8.618;2022-08-02T02:40:49;5.10;;;3.40;;
39778;SDS011;25454;49.878;8.618;2022-08-02T02:45:51;4.17;;;3.60;;
39778;SDS011;25454;49.878;8.618;2022-08-02T02:50:52;6.97;;;3.70;;
39778;SDS011;25454;49.878;8.618;2022-08-02T02:55:54;4.17;;;3.77;;
39778;SDS011;25454;49.878;8.618;2022-08-02T03:00:55;5.13;;;3.80;;
39778;SDS011;25454;49.878;8.618;2022-08-02T03:06:14;4.03;;;3.40;;
39778;SDS011;25454;49.878;8.618;2022-08-02T03:11:15;3.80;;;3.50;;
39778;SDS011;25454;49.878;8.618;2022-08-02T03:16:17;3.57;;;3.27;;
39778;SDS011;25454;49.878;8.618;2022-08-02T03:21:18;3.80;;;3.53;;
39778;SDS011;25454;49.878;8.618;2022-08-02T03:26:19;5.40;;;3.90;;
39778;SDS011;25454;49.878;8.618;2022-08-02T03:31:20;6.20;;;4.90;;
39778;SDS011;25454;49.878;8.618;2022-08-02T03:36:21;4.53;;;4.10;;
39778;SDS011;25454;49.878;8.618;2022-08-02T03:41:25;4.53;;;4.17;;
39778;SDS011;25454;49.878;8.618;2022-08-02T03:46:27;4.03;;;3.63;;
39778;SDS011;25454;49.878;8.618;2022-08-02T03:51:28;3.83;;;3.50;;
39778;SDS011;25454;49.878;8.618;2022-08-02T03:56:29;4.47;;;4.07;;
39778;SDS011;25454;49.878;8.618;2022-08-02T04:01:31;5.83;;;4.20;;
39778;SDS011;25454;49.878;8.618;2022-08-02T04:06:32;4.30;;;3.90;;
39778;SDS011;25454;49.878;8.618;2022-08-02T04:11:33;5.00;;;3.80;;
39778;SDS011;25454;49.878;8.618;2022-08-02T04:16:53;5.50;;;3.70;;
39778;SDS011;25454;49.878;8.618;2022-08-02T04:21:58;4.27;;;3.87;;
39778;SDS011;25454;49.878;8.618;2022-08-02T04:27:03;4.07;;;3.73;;
39778;SDS011;25454;49.878;8.618;2022-08-02T04:32:05;4.37;;;3.67;;
39778;SDS011;25454;49.878;8.618;2022-08-02T04:37:06;3.67;;;3.37;;
39778;SDS011;25454;49.878;8.618;2022-08-02T04:42:07;5.50;;;3.77;;
39778;SDS011;25454;49.878;8.618;2022-08-02T04:47:08;5.00;;;3.53;;
39778;SDS011;25454;49.878;8.618;2022-08-02T04:52:09;6.67;;;3.50;;
39778;SDS011;25454;49.878;8.618;2022-08-02T04:57:10;5.73;;;3.67;;
39778;SDS011;25454;49.878;8.618;2022-08-02T05:02:30;6.60;;;3.80;;
39778;SDS011;25454;49.878;8.618;2022-08-02T05:07:31;4.70;;;3.73;;
39778;SDS011;25454;49.878;8.618;2022-08-02T05:12:32;3.97;;;3.53;;
39778;SDS011;25454;49.878;8.618;2022-08-02T05:17:33;3.50;;;3.00;;
39778;SDS011;25454;49.878;8.618;2022-08-02T05:22:34;4.40;;;3.23;;
39778;SDS011;25454;49.878;8.618;2022-08-02T05:27:38;4.50;;;3.13;;
39778;SDS011;25454;49.878;8.618;2022-08-02T05:32:51;3.40;;;3.10;;
39778;SDS011;25454;49.878;8.618;2022-08-02T05:37:52;4.17;;;3.77;;
39778;SDS011;25454;49.878;8.618;2022-08-02T05:43:02;4.37;;;3.20;;
39778;SDS011;25454;49.878;8.618;2022-08-02T05:48:03;5.73;;;3.73;;
39778;SDS011;25454;49.878;8.618;2022-08-02T05:58:13;3.87;;;3.23;;
39778;SDS011;25454;49.878;8.618;2022-08-02T06:03:24;4.77;;;2.90;;
39778;SDS011;25454;49.878;8.618;2022-08-02T06:08:31;2.40;;;2.20;;
39778;SDS011;25454;49.878;8.618;2022-08-02T06:13:32;5.30;;;2.47;;
39778;SDS011;25454;49.878;8.618;2022-08-02T06:18:33;2.77;;;2.47;;
39778;SDS011;25454;49.878;8.618;2022-08-02T06:23:41;4.57;;;2.00;;
39778;SDS011;25454;49.878;8.618;2022-08-02T06:28:42;3.93;;;1.90;;
39778;SDS011;25454;49.878;8.618;2022-08-02T06:33:45;2.07;;;1.97;;
39778;SDS011;25454;49.878;8.618;2022-08-02T06:38:53;1.93;;;1.73;;
39778;SDS011;25454;49.878;8.618;2022-08-02T06:44:02;4.20;;;1.80;;
39778;SDS011;25454;49.878;8.618;2022-08-02T06:49:03;2.93;;;1.50;;
39778;SDS011;25454;49.878;8.618;2022-08-02T06:54:07;2.00;;;1.80;;
39778;SDS011;25454;49.878;8.618;2022-08-02T06:59:11;2.57;;;1.90;;
39778;SDS011;25454;49.878;8.618;2022-08-02T07:04:12;2.37;;;1.80;;
39778;SDS011;25454;49.878;8.618;2022-08-02T07:09:13;2.47;;;2.20;;
39778;SDS011;25454;49.878;8.618;2022-08-02T07:14:14;5.80;;;2.20;;
39778;SDS011;25454;49.878;8.618;2022-08-02T07:19:15;2.97;;;1.63;;
39778;SDS011;25454;49.878;8.618;2022-08-02T07:24:16;4.10;;;1.93;;
39778;SDS011;25454;49.878;8.618;2022-08-02T07:29:17;3.83;;;2.07;;
39778;SDS011;25454;49.878;8.618;2022-08-02T07:34:24;1.67;;;1.50;;
39778;SDS011;25454;49.878;8.618;2022-08-02T07:39:28;2.73;;;1.50;;
39778;SDS011;25454;49.878;8.618;2022-08-02T07:44:29;1.73;;;1.40;;
39778;SDS011;25454;49.878;8.618;2022-08-02T07:49:33;3.27;;;1.47;;
39778;SDS011;25454;49.878;8.618;2022-08-02T07:54:34;3.10;;;1.70;;
39778;SDS011;25454;49.878;8.618;2022-08-02T07:59:35;1.83;;;1.50;;
39778;SDS011;25454;49.878;8.618;2022-08-02T08:04:36;2.43;;;1.90;;
39778;SDS011;25454;49.878;8.618;2022-08-02T08:09:40;1.53;;;1.27;;
39778;SDS011;25454;49.878;8.618;2022-08-02T08:14:52;2.70;;;1.43;;
39778;SDS011;25454;49.878;8.618;2022-08-02T08:19:53;2.77;;;1.73;;
39778;SDS011;25454;49.878;8.618;2022-08-02T08:24:54;2.00;;;1.67;;
39778;SDS011;25454;49.878;8.618;2022-08-02T08:29:55;1.77;;;1.23;;
39778;SDS011;25454;49.878;8.618;2022-08-02T08:34:56;1.77;;;1.40;;
39778;SDS011;25454;49.878;8.618;2022-08-02T08:40:06;1.23;;;1.10;;
39778;SDS011;25454;49.878;8.618;2022-08-02T08:45:07;2.87;;;1.07;;
39778;SDS011;25454;49.878;8.618;2022-08-02T08:50:15;1.50;;;1.40;;
39778;SDS011;25454;49.878;8.618;2022-08-02T08:55:16;5.20;;;1.70;;
39778;SDS011;25454;49.878;8.618;2022-08-02T09:00:18;2.33;;;1.50;;
39778;SDS011;25454;49.878;8.618;2022-08-02T09:05:22;3.13;;;1.60;;
39778;SDS011;25454;49.878;8.618;2022-08-02T09:10:39;1.37;;;1.20;;
39778;SDS011;25454;49.878;8.618;2022-08-02T09:15:40;2.65;;;1.30;;
39778;SDS011;25454;49.878;8.618;2022-08-02T09:20:54;2.63;;;1.10;;
39778;SDS011;25454;49.878;8.618;2022-08-02T09:25:59;1.48;;;1.10;;
39778;SDS011;25454;49.878;8.618;2022-08-02T09:36:08;1.65;;;1.10;;
39778;SDS011;25454;49.878;8.618;2022-08-02T09:41:21;1.30;;;1.20;;
39778;SDS011;25454;49.878;8.618;2022-08-02T09:46:24;1.92;;;1.38;;
39778;SDS011;25454;49.878;8.618;2022-08-02T09:51:27;1.85;;;1.40;;
39778;SDS011;25454;49.878;8.618;2022-08-02T09:56:38;2.08;;;1.13;;
39778;SDS011;25454;49.878;8.618;2022-08-02T10:01:39;1.30;;;1.20;;
39778;SDS011;25454;49.878;8.618;2022-08-02T10:06:41;1.30;;;1.30;;
39778;SDS011;25454;49.878;8.618;2022-08-02T10:11:45;2.90;;;1.60;;
39778;SDS011;25454;49.878;8.618;2022-08-02T10:16:50;1.42;;;1.30;;
39778;SDS011;25454;49.878;8.618;2022-08-02T10:21:58;3.45;;;1.67;;
39778;SDS011;25454;49.878;8.618;2022-08-02T10:27:01;1.50;;;1.40;;
39778;SDS011;25454;49.878;8.618;2022-08-02T10:32:04;1.17;;;1.00;;
39778;SDS011;25454;49.878;8.618;2022-08-02T10:37:07;1.60;;;1.40;;
39778;SDS011;25454;49.878;8.618;2022-08-02T10:42:08;3.13;;;1.20;;
39778;SDS011;25454;49.878;8.618;2022-08-02T10:52:13;1.27;;;0.90;;
39778;SDS011;25454;49.878;8.618;2022-08-02T10:57:22;1.17;;;1.10;;
39778;SDS011;25454;49.878;8.618;2022-08-02T11:02:42;2.97;;;1.13;;
39778;SDS011;25454;49.878;8.618;2022-08-02T11:13:17;3.10;;;1.30;;
39778;SDS011;25454;49.878;8.618;2022-08-02T11:18:14;1.30;;;1.20;;
39778;SDS011;25454;49.878;8.618;2022-08-02T11:23:37;2.03;;;1.55;;
39778;SDS011;25454;49.878;8.618;2022-08-02T11:28:38;1.20;;;1.10;;
39778;SDS011;25454;49.878;8.618;2022-08-02T11:33:39;1.30;;;1.20;;
39778;SDS011;25454;49.878;8.618;2022-08-02T11:38:42;1.00;;;1.00;;
39778;SDS011;25454;49.878;8.618;2022-08-02T11:43:43;0.80;;;0.80;;
39778;SDS011;25454;49.878;8.618;2022-08-02T11:48:48;1.63;;;1.53;;
39778;SDS011;25454;49.878;8.618;2022-08-02T11:53:50;1.07;;;0.90;;
39778;SDS011;25454;49.878;8.618;2022-08-02T12:04:05;4.20;;;1.33;;
39778;SDS011;25454;49.878;8.618;2022-08-02T12:09:07;1.67;;;1.57;;
39778;SDS011;25454;49.878;8.618;2022-08-02T12:14:08;3.20;;;1.33;;
39778;SDS011;25454;49.878;8.618;2022-08-02T12:19:09;2.00;;;1.30;;
39778;SDS011;25454;49.878;8.618;2022-08-02T12:24:26;1.40;;;1.30;;
39778;SDS011;25454;49.878;8.618;2022-08-02T12:29:28;1.00;;;1.00;;
39778;SDS011;25454;49.878;8.618;2022-08-02T12:34:30;1.03;;;1.03;;
39778;SDS011;25454;49.878;8.618;2022-08-02T12:39:44;2.63;;;1.30;;
39778;SDS011;25454;49.878;8.618;2022-08-02T12:44:55;1.17;;;1.03;;
39778;SDS011;25454;49.878;8.618;2022-08-02T12:55:21;2.03;;;1.30;;
39778;SDS011;25454;49.878;8.618;2022-08-02T13:00:26;1.00;;;1.00;;
39778;SDS011;25454;49.878;8.618;2022-08-02T13:05:28;1.63;;;1.13;;
39778;SDS011;25454;49.878;8.618;2022-08-02T13:10:29;3.33;;;1.07;;
39778;SDS011;25454;49.878;8.618;2022-08-02T13:15:30;1.13;;;1.07;;
39778;SDS011;25454;49.878;8.618;2022-08-02T13:20:31;2.33;;;1.20;;
39778;SDS011;25454;49.878;8.618;2022-08-02T13:25:32;1.93;;;1.40;;
39778;SDS011;25454;49.878;8.618;2022-08-02T13:30:33;1.10;;;1.10;;
39778;SDS011;25454;49.878;8.618;2022-08-02T13:35:34;1.03;;;0.83;;
39778;SDS011;25454;49.878;8.618;2022-08-02T13:40:35;1.97;;;1.00;;
39778;SDS011;25454;49.878;8.618;2022-08-02T13:45:55;1.37;;;1.27;;
39778;SDS011;25454;49.878;8.618;2022-08-02T13:51:02;2.93;;;1.20;;
39778;SDS011;25454;49.878;8.618;2022-08-02T13:56:13;1.40;;;1.23;;
39778;SDS011;25454;49.878;8.618;2022-08-02T14:01:14;1.03;;;0.93;;
39778;SDS011;25454;49.878;8.618;2022-08-02T14:06:15;0.90;;;0.90;;
39778;SDS011;25454;49.878;8.618;2022-08-02T14:11:16;4.87;;;1.20;;
39778;SDS011;25454;49.878;8.618;2022-08-02T14:16:18;1.63;;;1.10;;
39778;SDS011;25454;49.878;8.618;2022-08-02T14:21:18;1.37;;;1.03;;
39778;SDS011;25454;49.878;8.618;2022-08-02T14:26:19;2.07;;;1.30;;
39778;SDS011;25454;49.878;8.618;2022-08-02T14:31:20;3.77;;;1.07;;
39778;SDS011;25454;49.878;8.618;2022-08-02T14:36:21;1.20;;;1.10;;
39778;SDS011;25454;49.878;8.618;2022-08-02T14:41:22;1.80;;;1.20;;
39778;SDS011;25454;49.878;8.618;2022-08-02T14:46:26;2.43;;;1.20;;
39778;SDS011;25454;49.878;8.618;2022-08-02T14:51:30;3.07;;;1.20;;
39778;SDS011;25454;49.878;8.618;2022-08-02T14:56:31;1.40;;;1.30;;
39778;SDS011;25454;49.878;8.618;2022-08-02T15:01:32;1.30;;;1.17;;
39778;SDS011;25454;49.878;8.618;2022-08-02T15:06:33;1.73;;;1.13;;
39778;SDS011;25454;49.878;8.618;2022-08-02T15:11:34;1.83;;;1.10;;
39778;SDS011;25454;49.878;8.618;2022-08-02T15:16:38;1.67;;;1.10;;
39778;SDS011;25454;49.878;8.618;2022-08-02T15:21:39;1.63;;;1.40;;
39778;SDS011;25454;49.878;8.618;2022-08-02T15:26:40;2.13;;;1.30;;
39778;SDS011;25454;49.878;8.618;2022-08-02T15:31:41;1.20;;;1.10;;
39778;SDS011;25454;49.878;8.618;2022-08-02T15:36:42;1.90;;;1.30;;
39778;SDS011;25454;49.878;8.618;2022-08-02T15:41:49;2.70;;;1.53;;
39778;SDS011;25454;49.878;8.618;2022-08-02T15:46:50;4.13;;;1.30;;
39778;SDS011;25454;49.878;8.618;2022-08-02T15:51:52;1.70;;;1.23;;
39778;SDS011;25454;49.878;8.618;2022-08-02T15:56:56;1.73;;;1.43;;
39778;SDS011;25454;49.878;8.618;2022-08-02T16:02:00;1.67;;;1.00;;
39778;SDS011;25454;49.878;8.618;2022-08-02T16:07:05;2.30;;;1.20;;
39778;SDS011;25454;49.878;8.618;2022-08-02T16:12:09;1.30;;;1.20;;
39778;SDS011;25454;49.878;8.618;2022-08-02T16:17:16;2.60;;;1.23;;
39778;SDS011;25454;49.878;8.618;2022-08-02T16:22:17;3.27;;;1.20;;
39778;SDS011;25454;49.878;8.618;2022-08-02T16:27:18;1.87;;;1.30;;
39778;SDS011;25454;49.878;8.618;2022-08-02T16:32:19;3.97;;;1.10;;
39778;SDS011;25454;49.878;8.618;2022-08-02T16:37:20;1.87;;;1.10;;
39778;SDS011;25454;49.878;8.618;2022-08-02T16:42:21;1.70;;;1.20;;
39778;SDS011;25454;49.878;8.618;2022-08-02T16:47:22;3.20;;;1.70;;
39778;SDS011;25454;49.878;8.618;2022-08-02T16:52:23;1.97;;;1.10;;
39778;SDS011;25454;49.878;8.618;2022-08-02T16:57:24;1.23;;;1.13;;
39778;SDS011;25454;49.878;8.618;2022-08-02T17:02:25;1.63;;;1.00;;
39778;SDS011;25454;49.878;8.618;2022-08-02T17:07:26;1.50;;;1.40;;
39778;SDS011;25454;49.878;8.618;2022-08-02T17:12:27;1.63;;;1.40;;
39778;SDS011;25454;49.878;8.618;2022-08-02T17:17:28;3.33;;;3.07;;
39778;SDS011;25454;49.878;8.618;2022-08-02T17:22:32;1.80;;;1.63;;
39778;SDS011;25454;49.878;8.618;2022-08-02T17:27:33;1.70;;;1.10;;
39778;SDS011;25454;49.878;8.618;2022-08-02T17:32:34;1.97;;;1.03;;
39778;SDS011;25454;49.878;8.618;2022-08-02T17:37:36;2.27;;;1.10;;
39778;SDS011;25454;49.878;8.618;2022-08-02T17:42:40;1.30;;;1.20;;
39778;SDS011;25454;49.878;8.618;2022-08-02T17:47:41;2.50;;;1.50;;
39778;SDS011;25454;49.878;8.618;2022-08-02T17:52:42;1.40;;;1.30;;
39778;SDS011;25454;49.878;8.618;2022-08-02T17:57:43;1.30;;;1.20;;
39778;SDS011;25454;49.878;8.618;2022-08-02T18:02:44;1.77;;;1.30;;
39778;SDS011;25454;49.878;8.618;2022-08-02T18:07:45;2.30;;;1.27;;
39778;SDS011;25454;49.878;8.618;2022-08-02T18:12:46;1.20;;;1.10;;
39778;SDS011;25454;49.878;8.618;2022-08-02T18:17:47;1.30;;;1.20;;
39778;SDS011;25454;49.878;8.618;2022-08-02T18:22:51;1.50;;;1.33;;
39778;SDS011;25454;49.878;8.618;2022-08-02T18:27:52;2.87;;;1.67;;
39778;SDS011;25454;49.878;8.618;2022-08-02T18:32:54;3.03;;;1.73;;
39778;SDS011;25454;49.878;8.618;2022-08-02T18:37:55;2.63;;;2.23;;
39778;SDS011;25454;49.878;8.618;2022-08-02T18:42:56;4.80;;;2.10;;
39778;SDS011;25454;49.878;8.618;2022-08-02T18:47:58;5.70;;;2.07;;
39778;SDS011;25454;49.878;8.618;2022-08-02T18:52:59;5.70;;;2.20;;
39778;SDS011;25454;49.878;8.618;2022-08-02T18:58:00;4.20;;;2.00;;
39778;SDS011;25454;49.878;8.618;2022-08-02T19:03:01;8.03;;;2.33;;
39778;SDS011;25454;49.878;8.618;2022-08-02T19:08:02;5.37;;;2.50;;
39778;SDS011;25454;49.878;8.618;2022-08-02T19:13:04;2.57;;;2.20;;
39778;SDS011;25454;49.878;8.618;2022-08-02T19:18:05;3.80;;;2.50;;
39778;SDS011;25454;49.878;8.618;2022-08-02T19:23:07;5.63;;;2.87;;
39778;SDS011;25454;49.878;8.618;2022-08-02T19:28:12;3.47;;;2.70;;
39778;SDS011;25454;49.878;8.618;2022-08-02T19:33:13;2.83;;;2.37;;
39778;SDS011;25454;49.878;8.618;2022-08-02T19:38:14;3.77;;;2.17;;
39778;SDS011;25454;49.878;8.618;2022-08-02T19:43:15;6.03;;;3.37;;
39778;SDS011;25454;49.878;8.618;2022-08-02T19:48:16;10.70;;;5.60;;
39778;SDS011;25454;49.878;8.618;2022-08-02T19:53:19;7.27;;;5.40;;
39778;SDS011;25454;49.878;8.618;2022-08-02T19:58:20;5.83;;;4.83;;
39778;SDS011;25454;49.878;8.618;2022-08-02T20:03:21;3.77;;;3.37;;
39778;SDS011;25454;49.878;8.618;2022-08-02T20:08:22;7.13;;;4.90;;
39778;SDS011;25454;49.878;8.618;2022-08-02T20:13:23;5.40;;;4.87;;
39778;SDS011;25454;49.878;8.618;2022-08-02T20:18:26;6.03;;;4.97;;
39778;SDS011;25454;49.878;8.618;2022-08-02T20:23:28;6.63;;;4.27;;
39778;SDS011;25454;49.878;8.618;2022-08-02T20:28:32;4.23;;;3.10;;
39778;SDS011;25454;49.878;8.618;2022-08-02T20:33:34;5.63;;;4.30;;
39778;SDS011;25454;49.878;8.618;2022-08-02T20:38:35;6.53;;;4.90;;
39778;SDS011;25454;49.878;8.618;2022-08-02T20:43:37;4.10;;;3.07;;
39778;SDS011;25454;49.878;8.618;2022-08-02T20:48:38;5.17;;;3.80;;
39778;SDS011;25454;49.878;8.618;2022-08-02T20:53:39;6.83;;;4.90;;
39778;SDS011;25454;49.878;8.618;2022-08-02T20:58:40;5.47;;;4.20;;
39778;SDS011;25454;49.878;8.618;2022-08-02T21:03:41;4.77;;;3.80;;
39778;SDS011;25454;49.878;8.618;2022-08-02T21:08:48;4.30;;;3.90;;
39778;SDS011;25454;49.878;8.618;2022-08-02T21:13:49;5.50;;;4.30;;
39778;SDS011;25454;49.878;8.618;2022-08-02T21:18:50;7.17;;;4.60;;
39778;SDS011;25454;49.878;8.618;2022-08-02T21:23:54;8.23;;;4.30;;
39778;SDS011;25454;49.878;8.618;2022-08-02T21:28:55;5.73;;;4.20;;
39778;SDS011;25454;49.878;8.618;2022-08-02T21:33:56;5.47;;;3.80;;
39778;SDS011;25454;49.878;8.618;2022-08-02T21:38:58;5.77;;;4.23;;
39778;SDS011;25454;49.878;8.618;2022-08-02T21:43:59;5.13;;;3.63;;
39778;SDS011;25454;49.878;8.618;2022-08-02T21:49:00;3.43;;;3.13;;
39778;SDS011;25454;49.878;8.618;2022-08-02T21:54:01;4.23;;;3.83;;
39778;SDS011;25454;49.878;8.618;2022-08-02T21:59:02;4.70;;;3.80;;
39778;SDS011;25454;49.878;8.618;2022-08-02T22:04:03;5.40;;;3.47;;
39778;SDS011;25454;49.878;8.618;2022-08-02T22:09:04;6.93;;;3.90;;
39778;SDS011;25454;49.878;8.618;2022-08-02T22:14:05;4.17;;;3.77;;
39778;SDS011;25454;49.878;8.618;2022-08-02T22:19:06;5.77;;;3.97;;
39778;SDS011;25454;49.878;8.618;2022-08-02T22:24:07;4.40;;;4.00;;
39778;SDS011;25454;49.878;8.618;2022-08-02T22:29:09;6.07;;;4.53;;
39778;SDS011;25454;49.878;8.618;2022-08-02T22:34:09;6.80;;;4.57;;
39778;SDS011;25454;49.878;8.618;2022-08-02T22:39:12;7.13;;;4.30;;
39778;SDS011;25454;49.878;8.618;2022-08-02T22:44:13;5.60;;;4.50;;
39778;SDS011;25454;49.878;8.618;2022-08-02T22:49:14;8.03;;;4.20;;
39778;SDS011;25454;49.878;8.618;2022-08-02T22:54:15;4.83;;;4.00;;
39778;SDS011;25454;49.878;8.618;2022-08-02T22:59:16;4.23;;;3.63;;
39778;SDS011;25454;49.878;8.618;2022-08-02T23:04:17;5.40;;;3.93;;
39778;SDS011;25454;49.878;8.618;2022-08-02T23:09:18;5.50;;;3.80;;
39778;SDS011;25454;49.878;8.618;2022-08-02T23:14:19;6.80;;;4.10;;
39778;SDS011;25454;49.878;8.618;2022-08-02T23:19:20;7.13;;;4.20;;
39778;SDS011;25454;49.878;8.618;2022-08-02T23:24:40;4.50;;;4.00;;
39778;SDS011;25454;49.878;8.618;2022-08-02T23:29:41;6.03;;;3.77;;
39778;SDS011;25454;49.878;8.618;2022-08-02T23:34:42;5.00;;;4.03;;
39778;SDS011;25454;49.878;8.618;2022-08-02T23:39:46;6.70;;;4.03;;
39778;SDS011;25454;49.878;8.618;2022-08-02T23:44:47;4.47;;;3.80;;
39778;SDS011;25454;49.878;8.618;2022-08-02T23:49:48;6.63;;;4.33;;
39778;SDS011;25454;49.878;8.618;2022-08-02T23:54:49;4.27;;;3.50;;
39778;SDS011;25454;49.878;8.618;2022-08-02T23:59:53;5.20;;;3.67;;
